Search for airport 
image banner adimage banner ad
image banner ad

ESNZ - Are Ostersund

Located in Ostersund, Sweden

ICAO - ESNZ, IATA - OSD

Data provided by Airmate  

General information

Coordinates: N63°11'40" E14°30'1"
Elevation is 1233 feet MSL.
Magnetic variation is +5.0° East
Rated:
View ratings: [VIEW]


View others Airports in Jämtlande län

Operational data

Open for public use
Current time UTC:
Current local time:
Weather
METAR: ESNZ 070120Z AUTO 14003KT 9999 NCD 15/14 Q1022
View NOTAMs / SUP AIP / TFR affecting this airport [VIEW]
Communications frequencies: [VIEW]

Runways:

RWY identifierQFULength (ft)Width (ft)SurfaceLDA (ft)
12115°8202148ASPH8202
30295°8202148ASPH8202

Airport contact information

Address: Ostersund Sweden

Other aviation service providers

Aviation club (not for profit)

Östersunds Flygklubb

Östersunds Flygklubb
info@flygklubben.se+46637011389
+46703176548

Satellite view of ESNZ